Anniston Metropolitan Airport
KANB : now visible

Airfield :











YOU CAN JOIN US ON...

 
LOGIN :

Register | Disclaimer

   EN    FR    IT 

 









Legend :    VFR   Marginal VFR   IFR   Intensive IFR   Very Intensive IFR
Visi :
Ceiling :
>= 8 km
>= 3000ft
5 to 8 km
1000 to 3000 ft
1500m to 5 km
500 to 1000 ft
800 to 1500m
200 to 500 ft
< 800m
< 200 ft
Symbols :   Thunderstorms  Fog  Heavy snow  Heavy precipitations  Wind > 20 kt






- Airport Elevation : 612 ft
- IATA code : ANB


KANB - Anniston Metropolitan

CURRENT METAR :
  • 181053Z AUTO 07008KT 10SM OVC040 08/00 A3035 RMK AO2 RAB33E44 SLP280 P0000 T00830000

EXPIRED METARs :
  • 180953Z AUTO 08008KT 10SM OVC042 09/M02 A3038 RMK AO2 SLP289 T00891017

TAF KANB
Valid from the 18 at 12:00 until the 19 at 12:00 UTC


181125Z 1812/1912 08009KT P6SM VCSH SCT027 BKN035
FM181500 16010G18KT 6SM SHRA OVC015
FM181800 18010G25KT 5SM SHRA OVC011
FM182300 20007KT 4SM SHRA OVC007
FM190300 27007KT P6SM VCSH OVC009
FM190500 31007KT P6SM VCSH OVC018
FM190600 31007KT P6SM OVC027



MET'MAP, your aeronautical weather chart ! - Copyright ORBIFLY December 2007 - Disclaimer

ORBIFLY MET'MAP TEAM :

Programming & Development : Alexandra Zaïnal
Concept & original design : Baudouin d'Aumeries
Assistance for programming : Marc-Olivier Méhu
Technical & hardware support : Manuel Goepfert

Contact : metmap@orbifly.com




SOURCES & CREDITS :

   NOAA       Earth
Advisory